Time;durP1;ratioP1;P1;durP2;ratioP2;P2;SDS_P1;SDS_P2;PMS_P1;PMS_P2;Temp;Humidity;BMP_temperature;BMP_pressure;BME280_temperature;BME280_humidity;BME280_pressure;Samples;Min_cycle;Max_cycle;Signal;HPM_P1;HPM_P2
2022/06/12 00:01:23;;;;;;;4.23;3.93;;;22.00;46.30;;;;;;20773;6780;120115;-89
2022/06/12 00:03:59;;;;;;;4.28;3.97;;;21.80;46.20;;;;;;20592;6780;308400;-89
2022/06/12 00:06:38;;;;;;;4.00;3.70;;;21.80;46.40;;;;;;20765;6766;117077;-89
2022/06/12 00:09:10;;;;;;;4.70;4.40;;;21.70;46.50;;;;;;20819;6768;117617;-91
2022/06/12 00:11:46;;;;;;;4.50;4.20;;;21.40;46.80;;;;;;20593;6819;309582;-89
2022/06/12 00:14:21;;;;;;;4.43;4.03;;;21.50;47.00;;;;;;20784;6786;117866;-89
2022/06/12 00:16:57;;;;;;;4.53;4.30;;;21.50;47.00;;;;;;20474;6777;309804;-90
2022/06/12 00:19:32;;;;;;;4.97;3.77;;;21.60;47.40;;;;;;20844;6759;120446;-89
2022/06/12 00:22:08;;;;;;;4.00;3.70;;;21.50;47.30;;;;;;20807;6774;117225;-90
2022/06/12 00:24:43;;;;;;;4.10;3.80;;;21.20;47.50;;;;;;20742;6786;117161;-89
2022/06/12 00:27:22;;;;;;;4.30;4.00;;;21.00;47.90;;;;;;20654;6784;118749;-91
2022/06/12 00:30:04;;;;;;;4.47;3.83;;;20.80;48.30;;;;;;20832;6764;117311;-90
2022/06/12 00:32:30;;;;;;;4.30;4.00;;;20.70;48.60;;;;;;20605;6767;307408;-90
2022/06/12 00:35:07;;;;;;;4.53;4.32;;;21.00;48.90;;;;;;20561;6780;276171;-89
2022/06/12 00:37:42;;;;;;;4.70;4.40;;;21.50;48.10;;;;;;20382;6780;339475;-89
2022/06/12 00:40:17;;;;;;;4.97;4.67;;;21.70;47.50;;;;;;20581;6780;278599;-90
2022/06/12 00:42:54;;;;;;;5.03;4.72;;;21.90;47.20;;;;;;20534;6780;305942;-91
2022/06/12 00:45:33;;;;;;;4.83;4.30;;;21.90;47.10;;;;;;20816;6774;117724;-89
2022/06/12 00:48:23;;;;;;;4.93;4.53;;;21.50;47.40;;;;;;20431;6829;310312;-89
2022/06/12 00:50:58;;;;;;;4.60;4.30;;;21.60;47.70;;;;;;20593;6759;311852;-91
2022/06/12 00:53:35;;;;;;;4.80;4.40;;;21.60;47.60;;;;;;20814;6771;117209;-89
2022/06/12 00:56:12;;;;;;;4.95;4.62;;;21.30;47.70;;;;;;20529;6765;322069;-92
2022/06/12 00:58:58;;;;;;;5.23;4.87;;;21.30;48.30;;;;;;20822;6765;117037;-90
2022/06/12 01:01:30;;;;;;;5.73;4.70;;;21.10;48.60;;;;;;20855;6757;118499;-88
2022/06/12 01:07:04;;;;;;;4.90;4.50;;;20.50;49.70;;;;;;20707;6765;192014;-89
2022/06/12 01:09:46;;;;;;;5.30;5.00;;;20.20;49.90;;;;;;20715;6748;277514;-89
2022/06/12 01:12:16;;;;;;;5.75;5.25;;;20.50;50.40;;;;;;20736;6750;333992;-89
2022/06/12 01:14:51;;;;;;;5.20;4.80;;;20.90;49.80;;;;;;20953;6748;116272;-89
2022/06/12 01:17:30;;;;;;;5.20;4.80;;;20.80;49.60;;;;;;20783;6807;71944;-91
2022/06/12 01:20:02;;;;;;;5.93;5.53;;;20.50;49.90;;;;;;20755;6750;305959;-91
2022/06/12 01:22:47;;;;;;;5.80;5.30;;;20.60;50.10;;;;;;20965;6748;116141;-91
2022/06/12 01:25:47;;;;;;;5.33;4.93;;;20.50;50.00;;;;;;20957;6750;116839;-90
2022/06/12 01:28:45;;;;;;;7.47;5.13;;;20.20;50.20;;;;;;20917;6763;121181;-90
2022/06/12 01:31:31;;;;;;;6.07;5.62;;;20.00;50.70;;;;;;20702;6753;336616;-89
2022/06/12 01:34:33;;;;;;;6.80;5.40;;;20.20;51.50;;;;;;20935;6757;116590;-91
2022/06/12 01:37:08;;;;;;;6.75;6.12;;;20.20;51.10;;;;;;20580;6754;338120;-90
2022/06/12 01:39:44;;;;;;;6.00;5.60;;;20.30;51.30;;;;;;20863;6757;118206;-88
2022/06/12 01:42:24;;;;;;;5.60;5.20;;;20.30;51.20;;;;;;20852;6754;117153;-89
2022/06/12 01:45:08;;;;;;;5.80;5.30;;;20.10;51.60;;;;;;20868;6766;117547;-88
2022/06/12 01:47:55;;;;;;;6.67;6.07;;;19.80;51.80;;;;;;20516;6749;296363;-89
2022/06/12 01:50:46;;;;;;;5.93;5.50;;;20.10;52.10;;;;;;20860;6751;117544;-89
2022/06/12 01:53:27;;;;;;;5.67;5.27;;;20.00;51.80;;;;;;20858;6757;117382;-90
2022/06/12 01:56:03;;;;;;;6.35;5.85;;;19.80;52.00;;;;;;20623;6753;310848;-89
2022/06/12 01:59:05;;;;;;;5.70;5.30;;;20.10;52.30;;;;;;20597;6756;306808;-90
2022/06/12 02:01:43;;;;;;;6.43;5.83;;;20.40;51.70;;;;;;20864;6749;116876;-89
2022/06/12 02:04:19;;;;;;;5.50;5.20;;;20.20;51.40;;;;;;20862;6757;118261;-89
2022/06/12 02:07:04;;;;;;;6.22;5.65;;;19.90;51.70;;;;;;19790;6879;309130;-91
2022/06/12 02:09:36;;;;;;;5.80;5.40;;;20.10;52.10;;;;;;20851;6759;117101;-90
2022/06/12 02:15:21;;;;;;;6.00;5.60;;;20.10;52.10;;;;;;20597;6756;299351;-90
2022/06/12 02:17:53;;;;;;;6.68;6.18;;;20.40;51.50;;;;;;20436;6767;339540;-89
2022/06/12 02:20:32;;;;;;;6.40;5.90;;;20.70;50.90;;;;;;20614;6765;279584;-89
2022/06/12 02:23:14;;;;;;;6.37;5.87;;;20.70;50.90;;;;;;20552;6780;288947;-90
2022/06/12 02:25:52;;;;;;;6.40;5.93;;;20.70;50.70;;;;;;20595;6765;307313;-89
2022/06/12 02:28:26;;;;;;;6.47;5.97;;;20.70;50.60;;;;;;20575;6776;277241;-89
2022/06/12 02:31:01;;;;;;;5.77;5.37;;;20.70;50.60;;;;;;20813;6760;120486;-89
2022/06/12 02:33:37;;;;;;;6.07;5.60;;;20.40;50.90;;;;;;20553;6783;278272;-90
2022/06/12 02:36:12;;;;;;;6.73;6.13;;;20.30;51.50;;;;;;20485;6783;284548;-90
2022/06/12 02:38:48;;;;;;;5.53;5.23;;;20.40;51.30;;;;;;20803;6766;120278;-90
2022/06/12 02:41:27;;;;;;;6.70;6.30;;;20.20;51.40;;;;;;20656;6751;276755;-89
2022/06/12 02:44:06;;;;;;;6.77;6.37;;;20.20;51.70;;;;;;20607;6766;306369;-89
2022/06/12 02:46:47;;;;;;;6.13;5.60;;;20.30;51.50;;;;;;20714;6766;120184;-89
2022/06/12 02:49:23;;;;;;;6.67;6.17;;;20.00;51.60;;;;;;20791;6778;118297;-89
2022/06/12 02:52:01;;;;;;;5.67;5.27;;;19.70;52.20;;;;;;20783;6778;117090;-89
2022/06/12 02:54:38;;;;;;;6.97;6.33;;;19.40;52.60;;;;;;20791;6778;119267;-89
2022/06/12 02:57:14;;;;;;;6.90;6.40;;;19.10;53.00;;;;;;20502;6756;340068;-89
2022/06/12 03:00:16;;;;;;;6.57;6.13;;;19.40;53.50;;;;;;20801;6781;117259;-89
2022/06/12 03:03:12;;;;;;;6.90;6.40;;;19.50;53.00;;;;;;20625;6753;309173;-89
2022/06/12 03:05:52;;;;;;;6.20;5.80;;;19.40;53.00;;;;;;20815;6763;117348;-89
2022/06/12 03:08:28;;;;;;;6.47;5.97;;;19.40;52.90;;;;;;20869;6751;116981;-90
2022/06/12 03:11:07;;;;;;;6.43;6.03;;;19.10;53.30;;;;;;20635;6750;309367;-91
2022/06/12 03:13:42;;;;;;;6.53;5.97;;;19.20;53.40;;;;;;20656;6750;307236;-90
2022/06/12 03:16:27;;;;;;;6.67;6.00;;;19.60;52.80;;;;;;20783;6765;117274;-90
2022/06/12 03:19:03;;;;;;;6.50;6.00;;;19.60;52.60;;;;;;20552;6780;308765;-90
2022/06/12 03:21:49;;;;;;;6.17;5.77;;;19.50;52.50;;;;;;20869;6753;117981;-90
2022/06/12 03:24:38;;;;;;;6.07;5.63;;;19.40;52.60;;;;;;20825;6763;117107;-90
2022/06/12 03:27:23;;;;;;;5.60;5.20;;;19.10;53.10;;;;;;20698;6765;117561;-90
2022/06/12 03:30:22;;;;;;;6.20;5.60;;;18.90;53.50;;;;;;20839;6753;117191;-89
2022/06/12 03:33:01;;;;;;;6.43;6.03;;;19.00;53.70;;;;;;20550;6765;310697;-89
2022/06/12 03:35:39;;;;;;;6.57;6.07;;;19.10;53.80;;;;;;20677;6771;299029;-94
2022/06/12 03:38:21;;;;;;;6.73;6.20;;;19.50;52.90;;;;;;20596;6781;308215;-91
2022/06/12 03:41:07;;;;;;;6.57;5.93;;;19.80;52.30;;;;;;20785;6783;120391;-90
2022/06/12 03:43:52;;;;;;;6.07;5.47;;;19.60;52.40;;;;;;20787;6824;121376;-89
2022/06/12 03:46:34;;;;;;;6.20;5.70;;;19.20;52.90;;;;;;20540;6770;308786;-89
2022/06/12 03:49:10;;;;;;;6.17;5.67;;;19.40;53.00;;;;;;20842;6759;117641;-89
2022/06/12 03:51:52;;;;;;;6.60;6.10;;;19.40;52.90;;;;;;20787;6780;117744;-90
2022/06/12 03:54:34;;;;;;;6.47;6.07;;;19.20;53.20;;;;;;20572;6776;338179;-91
2022/06/12 04:00:17;;;;;;;6.32;5.90;;;19.80;52.40;;;;;;20620;6755;337668;-91
2022/06/12 04:02:51;;;;;;;6.87;6.18;;;20.00;51.80;;;;;;20588;6756;337642;-90
2022/06/12 04:05:33;;;;;;;5.93;5.47;;;20.20;51.50;;;;;;20805;6768;117920;-90
2022/06/12 04:08:09;;;;;;;6.30;5.87;;;19.90;51.60;;;;;;20397;6839;281612;-89
2022/06/12 04:10:44;;;;;;;6.10;5.70;;;19.90;51.70;;;;;;20761;6766;121725;-91
2022/06/12 04:13:20;;;;;;;6.40;6.00;;;19.80;52.00;;;;;;20607;6766;307796;-90
2022/06/12 04:15:56;;;;;;;6.00;5.60;;;19.80;52.00;;;;;;20599;6762;306484;-90
2022/06/12 04:18:31;;;;;;;6.37;5.87;;;20.00;51.50;;;;;;20640;6762;279099;-90
2022/06/12 04:21:10;;;;;;;6.40;5.90;;;20.30;51.20;;;;;;20600;6780;307106;-91
2022/06/12 04:23:45;;;;;;;5.90;5.53;;;20.40;50.90;;;;;;20645;6771;307644;-91
2022/06/12 04:26:34;;;;;;;5.80;5.30;;;20.50;50.90;;;;;;20514;6780;310065;-89
2022/06/12 04:29:10;;;;;;;6.07;5.65;;;20.60;50.60;;;;;;20592;6765;327819;-90
2022/06/12 04:31:47;;;;;;;6.13;5.67;;;20.60;50.50;;;;;;20569;6780;279029;-90
2022/06/12 04:34:23;;;;;;;5.10;4.70;;;20.60;50.40;;;;;;20799;6780;117810;-89
2022/06/12 04:37:03;;;;;;;5.93;5.53;;;20.20;50.70;;;;;;20516;6764;313032;-92
2022/06/12 04:39:40;;;;;;;6.50;6.03;;;20.20;51.10;;;;;;20711;6766;277336;-90
2022/06/12 04:42:17;;;;;;;6.17;5.67;;;20.30;50.80;;;;;;20958;6749;116396;-90
2022/06/12 04:44:52;;;;;;;5.80;5.40;;;20.00;51.10;;;;;;20939;6749;118568;-90
2022/06/12 04:47:28;;;;;;;5.83;5.33;;;19.60;51.60;;;;;;20782;6749;117792;-90
2022/06/12 04:50:04;;;;;;;7.73;5.60;;;19.40;52.30;;;;;;20915;6768;67775;-91
2022/06/12 04:52:39;;;;;;;6.87;6.37;;;19.10;52.60;;;;;;20676;6768;334607;-89
2022/06/12 04:55:15;;;;;;;6.30;5.77;;;19.40;52.80;;;;;;20824;6780;115210;-92
2022/06/12 04:57:50;;;;;;;5.97;5.47;;;19.40;52.70;;;;;;20665;6768;117607;-88
2022/06/12 05:00:26;;;;;;;6.57;6.07;;;19.20;53.00;;;;;;20651;6757;278757;-88
2022/06/12 05:03:01;;;;;;;6.33;5.93;;;19.40;53.00;;;;;;20758;6775;183213;-91
2022/06/12 05:05:37;;;;;;;6.10;5.70;;;19.40;52.80;;;;;;20786;6784;117058;-89
2022/06/12 05:08:13;;;;;;;5.87;5.47;;;19.30;53.10;;;;;;20802;6771;117696;-88
2022/06/12 05:10:48;;;;;;;5.17;4.67;;;19.10;54.10;;;;;;20797;6768;126997;-90
2022/06/12 05:13:24;;;;;;;5.80;5.50;;;19.00;53.60;;;;;;20596;6776;307499;-88
2022/06/12 05:16:01;;;;;;;6.50;5.90;;;19.80;53.60;;;;;;20602;6759;321385;-88
2022/06/12 05:18:38;;;;;;;5.70;5.27;;;19.80;53.20;;;;;;20755;6778;121881;-88
2022/06/12 05:21:14;;;;;;;6.30;5.87;;;19.80;52.90;;;;;;20600;6768;336652;-89
2022/06/12 05:23:50;;;;;;;6.00;5.60;;;20.00;52.60;;;;;;20636;6759;278671;-89
2022/06/12 05:26:26;;;;;;;6.03;5.47;;;20.30;52.30;;;;;;20718;6781;117205;-89
2022/06/12 05:29:02;;;;;;;5.47;5.07;;;20.20;52.30;;;;;;20796;6772;190280;-89
2022/06/12 05:31:41;;;;;;;6.10;5.62;;;20.10;52.70;;;;;;20624;6777;309643;-90
2022/06/12 05:34:14;;;;;;;5.83;5.53;;;20.10;52.70;;;;;;20830;6765;121217;-89
2022/06/12 05:36:50;;;;;;;6.13;5.63;;;20.10;52.60;;;;;;20763;6753;121563;-89
2022/06/12 05:39:26;;;;;;;5.85;5.45;;;20.10;52.90;;;;;;20668;6750;308049;-89
2022/06/12 05:42:02;;;;;;;4.97;4.50;;;20.10;52.90;;;;;;20858;6753;118358;-89
2022/06/12 05:44:38;;;;;;;5.57;5.00;;;20.20;52.80;;;;;;20852;6756;117682;-88
2022/06/12 05:47:14;;;;;;;5.63;5.23;;;20.10;53.10;;;;;;20539;6738;308656;-90
2022/06/12 05:49:49;;;;;;;5.33;4.93;;;20.40;52.70;;;;;;20916;6751;117163;-89
2022/06/12 05:52:25;;;;;;;5.55;5.05;;;20.50;52.50;;;;;;20703;6751;280696;-89
2022/06/12 05:55:01;;;;;;;5.67;5.23;;;20.80;52.30;;;;;;20685;6751;307677;-90
2022/06/12 05:57:36;;;;;;;5.20;4.80;;;21.20;51.10;;;;;;20760;6751;118666;-89
2022/06/12 06:00:13;;;;;;;5.62;5.18;;;21.50;50.50;;;;;;20667;6751;279119;-90
2022/06/12 06:02:50;;;;;;;5.13;4.70;;;21.50;50.50;;;;;;20797;6767;118091;-89
2022/06/12 06:05:27;;;;;;;4.13;3.87;;;21.50;50.50;;;;;;20894;6742;117277;-91
2022/06/12 06:08:04;;;;;;;5.00;4.70;;;21.50;51.60;;;;;;20701;6804;117513;-89
2022/06/12 06:10:39;;;;;;;4.87;4.40;;;21.50;51.60;;;;;;20914;6736;118060;-88
2022/06/12 06:13:15;;;;;;;4.47;4.03;;;21.90;51.80;;;;;;20906;6736;117336;-88
2022/06/12 06:15:50;;;;;;;4.43;4.13;;;22.50;51.60;;;;;;20691;6736;307310;-89
2022/06/12 06:18:27;;;;;;;4.40;4.00;;;24.80;45.70;;;;;;20713;6736;309792;-89
2022/06/12 06:21:02;;;;;;;3.77;3.57;;;24.80;45.70;;;;;;20906;6736;117283;-90
2022/06/12 06:23:39;;;;;;;4.43;4.13;;;25.50;46.40;;;;;;20930;6736;117014;-90
2022/06/12 06:26:15;;;;;;;4.07;3.87;;;25.80;45.80;;;;;;20657;6736;308630;-92
2022/06/12 06:28:50;;;;;;;3.67;3.47;;;26.60;42.40;;;;;;20696;6738;278133;-89
2022/06/12 06:31:26;;;;;;;3.77;3.47;;;27.50;40.40;;;;;;20871;6751;117378;-89
2022/06/12 06:34:03;;;;;;;3.67;3.37;;;27.80;41.10;;;;;;20879;6751;117560;-91
2022/06/12 06:36:39;;;;;;;3.83;3.20;;;28.00;41.70;;;;;;20800;6751;118111;-90
2022/06/12 06:39:16;;;;;;;3.50;3.30;;;28.70;38.20;;;;;;20683;6736;306042;-90
2022/06/12 06:41:51;;;;;;;3.17;2.93;;;28.60;38.00;;;;;;20922;6736;120578;-89
2022/06/12 06:47:22;;;;;;;3.77;3.47;;;29.40;37.50;;;;;;20573;6735;308708;-88
2022/06/12 06:49:58;;;;;;;3.63;3.47;;;30.10;36.40;;;;;;20857;6807;116969;-90
2022/06/12 06:52:33;;;;;;;3.23;3.13;;;30.10;37.10;;;;;;20874;6750;117100;-91
2022/06/12 06:55:09;;;;;;;3.47;3.27;;;30.00;37.40;;;;;;20840;6753;119316;-88
2022/06/12 06:57:45;;;;;;;3.33;3.13;;;30.00;37.60;;;;;;20675;6768;117683;-89
2022/06/12 07:00:21;;;;;;;3.60;3.30;;;30.00;37.60;;;;;;20664;6751;304644;-89
2022/06/12 07:02:56;;;;;;;3.20;3.00;;;30.60;35.10;;;;;;20584;6768;309392;-89
2022/06/12 07:05:32;;;;;;;3.30;3.10;;;31.20;33.90;;;;;;20836;6764;119827;-88
2022/06/12 07:08:09;;;;;;;3.00;2.90;;;31.20;34.40;;;;;;20603;6839;120311;-89
2022/06/12 07:10:44;;;;;;;3.33;3.13;;;30.90;35.00;;;;;;20806;6764;117928;-88
2022/06/12 07:13:20;;;;;;;3.47;3.17;;;30.80;35.40;;;;;;20930;6736;117974;-87
2022/06/12 07:15:55;;;;;;;3.70;3.40;;;30.70;35.50;;;;;;20831;6751;117650;-89
2022/06/12 07:18:31;;;;;;;3.60;3.30;;;30.50;35.00;;;;;;20611;6781;308499;-89
2022/06/12 07:21:06;;;;;;;3.07;2.97;;;30.70;34.50;;;;;;20825;6762;117320;-88
2022/06/12 07:23:42;;;;;;;3.17;2.97;;;30.70;34.90;;;;;;20847;6762;117759;-88
2022/06/12 07:26:18;;;;;;;3.10;2.90;;;30.40;35.00;;;;;;20737;6777;117386;-91
2022/06/12 07:28:53;;;;;;;3.20;3.00;;;30.20;35.30;;;;;;20841;6756;118347;-88
2022/06/12 07:31:29;;;;;;;4.37;3.13;;;30.00;35.60;;;;;;20885;6742;117052;-89
2022/06/12 07:34:04;;;;;;;3.13;2.93;;;29.90;36.10;;;;;;20768;6783;117482;-88
2022/06/12 07:36:40;;;;;;;3.00;2.80;;;29.70;36.10;;;;;;20705;6780;118577;-88
2022/06/12 07:39:15;;;;;;;3.27;3.07;;;29.60;36.30;;;;;;20576;6768;307570;-88
2022/06/12 07:41:51;;;;;;;3.57;3.20;;;29.80;36.10;;;;;;20787;6768;120027;-87
2022/06/12 07:44:27;;;;;;;3.20;3.07;;;29.80;36.40;;;;;;20799;6766;117161;-88
2022/06/12 07:47:02;;;;;;;3.47;3.27;;;29.70;36.70;;;;;;20678;6767;119010;-86
2022/06/12 07:49:42;;;;;;;3.47;3.17;;;29.40;37.50;;;;;;20798;6772;117252;-89
2022/06/12 07:52:15;;;;;;;3.40;3.17;;;29.40;36.90;;;;;;20782;6772;117606;-89
2022/06/12 07:54:50;;;;;;;3.37;3.17;;;29.30;36.90;;;;;;20514;6783;307032;-89
2022/06/12 07:57:26;;;;;;;4.17;3.57;;;29.70;36.50;;;;;;20646;6780;118074;-89
2022/06/12 08:00:02;;;;;;;3.03;2.83;;;29.70;36.40;;;;;;20620;6759;337569;-89
2022/06/12 08:02:37;;;;;;;3.17;2.97;;;30.00;36.00;;;;;;20837;6759;117198;-89
2022/06/12 08:05:13;;;;;;;3.10;2.90;;;30.00;36.30;;;;;;20602;6758;309337;-90
2022/06/12 08:07:49;;;;;;;3.50;3.30;;;30.30;36.60;;;;;;20632;6774;122094;-88
2022/06/12 08:10:24;;;;;;;3.20;3.00;;;30.30;36.30;;;;;;20659;6744;297442;-88
2022/06/12 08:13:03;;;;;;;4.23;3.30;;;30.50;35.10;;;;;;20802;6759;166718;-89
2022/06/12 08:15:39;;;;;;;3.73;3.07;;;30.50;34.90;;;;;;20821;6759;121087;-89
2022/06/12 08:18:14;;;;;;;3.30;3.10;;;30.30;35.20;;;;;;20836;6759;117092;-89
2022/06/12 08:20:50;;;;;;;3.23;2.93;;;30.20;35.80;;;;;;20814;6759;120997;-90
2022/06/12 08:23:45;;;;;;;2.97;2.70;;;30.10;36.50;;;;;;20834;6759;118212;-89
2022/06/12 08:26:04;;;;;;;3.47;3.17;;;30.10;36.90;;;;;;20589;6800;307406;-90
2022/06/12 08:28:53;;;;;;;3.50;3.17;;;30.50;35.60;;;;;;20868;6804;117229;-92
2022/06/12 08:31:38;;;;;;;4.37;2.90;;;30.60;35.30;;;;;;20870;6748;119324;-93
2022/06/12 08:34:07;;;;;;;2.87;2.70;;;30.60;36.00;;;;;;20667;6748;278273;-93
2022/06/12 08:36:44;;;;;;;3.33;3.00;;;31.10;35.00;;;;;;20782;6748;117927;-90
2022/06/12 08:39:19;;;;;;;3.33;3.08;;;31.10;35.00;;;;;;20639;6755;336077;-89
2022/06/12 08:41:55;;;;;;;3.10;2.90;;;31.40;35.80;;;;;;20788;6759;120034;-90
2022/06/12 08:44:43;;;;;;;3.13;2.90;;;31.60;35.10;;;;;;20830;6762;117191;-91
2022/06/12 08:47:17;;;;;;;3.40;3.20;;;31.50;35.00;;;;;;20494;6762;282129;-90
2022/06/12 08:50:16;;;;;;;3.17;3.00;;;31.80;34.70;;;;;;20609;6768;278094;-89
2022/06/12 08:53:12;;;;;;;3.10;2.90;;;32.10;34.10;;;;;;20626;6757;307603;-90
2022/06/12 08:55:50;;;;;;;3.28;2.97;;;32.50;34.20;;;;;;20587;6749;306908;-90
2022/06/12 08:58:39;;;;;;;3.12;2.83;;;32.80;34.00;;;;;;20571;6757;336606;-91
2022/06/12 09:01:16;;;;;;;2.83;2.63;;;33.00;33.90;;;;;;20791;6753;117010;-91
2022/06/12 09:03:52;;;;;;;2.75;2.65;;;32.90;32.90;;;;;;20580;6754;282082;-87
2022/06/12 09:06:41;;;;;;;2.60;2.50;;;32.90;32.20;;;;;;20607;6753;280018;-89
2022/06/12 09:09:56;;;;;;;2.90;2.80;;;33.20;31.40;;;;;;20884;6739;117527;-89
2022/06/12 09:12:52;;;;;;;2.90;2.70;;;33.20;31.80;;;;;;20801;6771;117238;-90
2022/06/12 09:15:38;;;;;;;2.80;2.70;;;32.90;32.40;;;;;;20623;6760;308231;-89
2022/06/12 09:18:31;;;;;;;2.80;2.60;;;33.00;32.40;;;;;;20852;6756;117059;-88
2022/06/12 09:21:36;;;;;;;2.90;2.80;;;32.90;31.70;;;;;;20817;6753;118980;-87
2022/06/12 09:24:28;;;;;;;2.30;2.20;;;32.80;31.80;;;;;;20875;6748;116934;-90
2022/06/12 09:27:23;;;;;;;2.90;2.70;;;32.70;32.10;;;;;;20509;6748;309762;-89
2022/06/12 09:30:02;;;;;;;2.57;2.37;;;33.00;31.10;;;;;;20869;6750;117076;-89
2022/06/12 09:32:48;;;;;;;2.40;2.20;;;33.00;31.10;;;;;;20848;6758;117555;-90
2022/06/12 09:35:34;;;;;;;2.50;2.30;;;32.90;31.10;;;;;;20620;6763;280897;-89
2022/06/12 09:38:32;;;;;;;2.70;2.50;;;33.10;31.40;;;;;;20670;6832;117628;-89
2022/06/12 09:41:18;;;;;;;2.13;2.03;;;33.20;30.60;;;;;;20860;6749;120564;-88
2022/06/12 09:44:33;;;;;;;2.37;2.20;;;33.20;30.10;;;;;;20866;6749;119855;-87
2022/06/12 09:47:15;;;;;;;2.47;2.27;;;33.10;30.10;;;;;;20735;6753;119295;-88
2022/06/12 09:49:47;;;;;;;2.30;2.10;;;33.10;30.00;;;;;;20637;6749;308378;-88
2022/06/12 09:52:39;;;;;;;2.63;2.03;;;33.40;28.80;;;;;;20792;6772;117747;-89
2022/06/12 09:55:28;;;;;;;2.47;2.27;;;33.50;29.00;;;;;;20839;6753;117506;-90
2022/06/12 09:58:20;;;;;;;2.30;2.10;;;33.40;29.40;;;;;;20482;6806;308582;-91
2022/06/12 10:01:13;;;;;;;2.40;2.20;;;33.60;29.70;;;;;;20840;6749;116978;-91
2022/06/12 10:03:59;;;;;;;3.60;2.47;;;33.60;29.50;;;;;;20847;6757;117200;-90
2022/06/12 10:06:48;;;;;;;2.20;2.10;;;33.50;28.90;;;;;;20530;6768;312166;-90
2022/06/12 10:09:29;;;;;;;2.77;2.50;;;33.70;27.70;;;;;;20810;6757;117815;-90
2022/06/12 10:12:03;;;;;;;2.27;2.07;;;33.70;28.30;;;;;;20811;6771;117839;-90
2022/06/12 10:14:39;;;;;;;2.10;2.00;;;33.70;29.10;;;;;;20892;6752;66927;-89
2022/06/12 10:17:14;;;;;;;2.67;2.10;;;33.60;29.30;;;;;;20686;6768;121973;-90
2022/06/12 10:19:49;;;;;;;2.70;2.20;;;33.60;28.60;;;;;;20623;6760;278654;-90
2022/06/12 10:22:25;;;;;;;2.40;2.20;;;33.80;27.80;;;;;;20603;6816;309989;-90
2022/06/12 10:25:02;;;;;;;2.40;1.90;;;34.10;27.90;;;;;;20543;6775;294736;-90
2022/06/12 10:27:40;;;;;;;3.10;2.50;;;34.40;27.10;;;;;;20641;6783;117400;-87
2022/06/12 10:30:39;;;;;;;1.80;1.73;;;34.30;27.00;;;;;;20849;6765;117509;-89
2022/06/12 10:33:31;;;;;;;2.17;2.03;;;34.00;27.60;;;;;;20590;6768;280597;-88
2022/06/12 10:36:07;;;;;;;2.07;1.97;;;34.10;26.90;;;;;;20360;6806;311441;-89
2022/06/12 10:38:43;;;;;;;2.53;1.98;;;34.30;26.40;;;;;;20605;6765;300271;-89
2022/06/12 10:41:18;;;;;;;2.10;2.00;;;34.40;26.70;;;;;;20618;6761;339044;-89
2022/06/12 10:43:56;;;;;;;1.77;1.67;;;34.40;26.20;;;;;;20867;6754;117986;-89
2022/06/12 10:46:31;;;;;;;2.15;2.05;;;34.30;26.10;;;;;;20577;6754;342257;-89
2022/06/12 10:49:14;;;;;;;2.27;2.17;;;34.30;27.80;;;;;;20848;6754;117375;-88
2022/06/12 10:51:49;;;;;;;2.07;1.97;;;34.30;27.80;;;;;;20863;6754;117139;-87
2022/06/12 10:54:26;;;;;;;1.97;1.87;;;34.10;27.70;;;;;;20866;6754;116961;-90
2022/06/12 10:57:18;;;;;;;2.57;1.90;;;34.00;27.90;;;;;;20489;6768;310958;-90
2022/06/12 10:59:54;;;;;;;2.10;2.00;;;34.10;27.00;;;;;;20567;6783;306977;-89
2022/06/12 11:02:43;;;;;;;3.00;2.10;;;34.40;26.90;;;;;;20612;6768;331746;-89
2022/06/12 11:05:35;;;;;;;1.90;1.70;;;34.60;26.10;;;;;;20616;6768;307862;-87
2022/06/12 11:08:31;;;;;;;2.97;1.70;;;34.40;26.50;;;;;;20827;6765;117446;-89
2022/06/12 11:11:09;;;;;;;1.70;1.60;;;34.50;26.50;;;;;;20840;6756;117436;-88
2022/06/12 11:13:45;;;;;;;1.70;1.60;;;34.10;26.70;;;;;;20768;6783;117572;-89
2022/06/12 11:16:37;;;;;;;1.80;1.70;;;33.90;26.10;;;;;;20700;6786;117518;-87
2022/06/12 11:19:39;;;;;;;1.67;1.58;;;33.60;26.20;;;;;;20588;6768;279068;-88
2022/06/12 11:22:38;;;;;;;1.73;1.63;;;33.80;27.00;;;;;;20606;6761;308516;-88
2022/06/12 11:25:20;;;;;;;1.60;1.50;;;34.10;25.90;;;;;;20862;6753;117199;-89
2022/06/12 11:28:02;;;;;;;2.97;2.00;;;34.10;26.20;;;;;;20675;6746;118579;-89
2022/06/12 11:31:01;;;;;;;1.90;1.80;;;33.90;26.70;;;;;;20888;6746;117383;-89
2022/06/12 11:33:55;;;;;;;1.70;1.60;;;34.00;26.80;;;;;;20615;6745;305447;-89
2022/06/12 11:36:38;;;;;;;1.70;1.60;;;33.90;26.70;;;;;;20402;6873;117322;-88
2022/06/12 11:39:25;;;;;;;1.90;1.80;;;34.10;26.80;;;;;;20870;6745;117578;-88
2022/06/12 11:42:18;;;;;;;2.03;1.93;;;33.90;27.00;;;;;;20664;6746;275625;-89
2022/06/12 11:44:56;;;;;;;2.30;1.50;;;34.10;25.90;;;;;;20872;6746;121046;-89
2022/06/12 11:47:38;;;;;;;1.97;1.87;;;33.90;25.60;;;;;;20761;6746;121192;-89
2022/06/12 11:50:20;;;;;;;1.70;1.57;;;33.70;26.10;;;;;;20905;6741;117088;-88
2022/06/12 11:53:18;;;;;;;1.90;1.80;;;33.40;26.60;;;;;;20889;6741;116905;-88
2022/06/12 11:55:57;;;;;;;2.10;2.00;;;33.30;27.00;;;;;;19855;7072;118762;-88
2022/06/12 11:58:55;;;;;;;1.90;1.80;;;33.20;27.40;;;;;;20596;6797;119645;-88
2022/06/12 12:01:31;;;;;;;1.87;1.77;;;33.10;27.60;;;;;;20895;6741;117406;-88
2022/06/12 12:04:30;;;;;;;1.70;1.60;;;33.10;27.90;;;;;;20832;6761;118117;-87
2022/06/12 12:07:17;;;;;;;2.00;1.90;;;33.00;27.90;;;;;;20702;6764;117944;-88
2022/06/12 12:10:01;;;;;;;2.10;1.80;;;33.10;27.90;;;;;;20818;6766;117137;-88
2022/06/12 12:12:39;;;;;;;1.80;1.70;;;33.10;28.00;;;;;;20803;6770;117194;-88
2022/06/12 12:15:19;;;;;;;2.00;1.70;;;33.00;27.50;;;;;;20741;6821;117134;-89
2022/06/12 12:17:54;;;;;;;1.83;1.73;;;33.00;27.50;;;;;;20653;6761;118774;-86
2022/06/12 12:20:36;;;;;;;1.87;1.77;;;33.20;26.80;;;;;;20549;6822;303850;-87
2022/06/12 12:23:15;;;;;;;1.80;1.70;;;33.20;27.20;;;;;;20816;6807;117538;-86
2022/06/12 12:25:51;;;;;;;1.95;1.80;;;33.50;27.20;;;;;;20627;6753;279107;-86
2022/06/12 12:28:33;;;;;;;1.80;1.70;;;33.50;27.20;;;;;;20901;6753;119121;-87
2022/06/12 12:31:10;;;;;;;2.12;1.80;;;33.50;27.40;;;;;;20690;6736;277560;-87
2022/06/12 12:33:46;;;;;;;2.00;1.80;;;33.70;27.80;;;;;;20645;6795;335802;-89
2022/06/12 12:42:36;;;;;;;1.90;1.80;;;33.80;27.50;;;;;;20909;6739;117132;-89
2022/06/12 12:45:21;;;;;;;2.03;1.87;;;33.60;27.70;;;;;;20834;6756;122908;-91
2022/06/12 12:48:07;;;;;;;2.00;1.90;;;33.40;27.50;;;;;;20667;6753;117383;-90
2022/06/12 12:50:49;;;;;;;2.57;1.90;;;33.30;27.70;;;;;;20828;6764;119913;-91
2022/06/12 12:53:25;;;;;;;2.30;2.10;;;33.20;27.90;;;;;;20821;6764;120872;-90
2022/06/12 12:56:03;;;;;;;2.20;2.10;;;33.20;27.70;;;;;;20583;6764;278773;-91
2022/06/12 12:58:39;;;;;;;1.93;1.83;;;33.70;27.40;;;;;;20622;6758;278623;-92
2022/06/12 13:01:16;;;;;;;2.00;1.90;;;33.70;27.40;;;;;;20817;6760;117575;-91
2022/06/12 13:03:57;;;;;;;2.00;1.90;;;33.70;27.70;;;;;;20856;6753;116946;-90
2022/06/12 13:07:06;;;;;;;2.20;2.10;;;33.50;27.70;;;;;;20790;6748;117076;-91
2022/06/12 13:09:55;;;;;;;2.10;1.90;;;33.40;28.10;;;;;;20732;6775;117584;-88
2022/06/12 13:12:43;;;;;;;2.17;2.07;;;33.20;28.40;;;;;;20777;6773;117220;-88
2022/06/12 13:15:43;;;;;;;1.98;1.87;;;33.40;27.60;;;;;;20299;6844;308815;-91
2022/06/12 13:18:38;;;;;;;2.00;1.90;;;33.40;27.90;;;;;;19725;7139;118974;-91
2022/06/12 13:21:50;;;;;;;2.07;1.97;;;33.40;27.40;;;;;;20661;6812;119304;-88
2022/06/12 13:24:43;;;;;;;2.90;2.30;;;33.30;28.20;;;;;;20878;6753;120358;-91
2022/06/12 13:27:27;;;;;;;2.33;2.20;;;33.20;28.60;;;;;;20741;6741;118626;-92
2022/06/12 13:30:03;;;;;;;4.25;2.17;;;33.10;28.80;;;;;;20450;6831;309029;-90
2022/06/12 13:32:41;;;;;;;42.33;11.13;;;33.40;28.30;;;;;;20882;6573;307458;-92
2022/06/12 13:35:11;;;;;;;222.40;54.23;;;33.90;28.30;;;;;;20682;6796;288728;-90
2022/06/12 13:37:36;;;;;;;226.20;51.00;;;33.80;28.20;;;;;;20559;6796;120946;-91
2022/06/12 13:40:02;;;;;;;16.87;7.03;;;33.70;28.20;;;;;;20439;6871;311540;-90
2022/06/12 13:42:28;;;;;;;11.93;5.28;;;33.70;27.40;;;;;;20454;6871;309088;-90
2022/06/12 13:44:55;;;;;;;4.13;3.13;;;33.90;28.70;;;;;;20575;6885;124450;-90
2022/06/12 13:47:32;;;;;;;2.63;2.30;;;33.70;28.60;;;;;;20605;6891;118136;-89
2022/06/12 13:49:58;;;;;;;2.40;2.30;;;33.40;29.00;;;;;;20444;6891;67259;-90
2022/06/12 13:52:33;;;;;;;2.83;2.63;;;33.10;29.40;;;;;;20314;6882;309771;-89
2022/06/12 13:54:59;;;;;;;2.65;2.50;;;33.20;29.70;;;;;;20371;6881;308761;-90
2022/06/12 13:57:36;;;;;;;2.53;2.33;;;33.40;29.30;;;;;;20334;6911;298641;-92
2022/06/12 14:00:02;;;;;;;2.30;2.10;;;33.50;29.90;;;;;;20394;6881;305059;-90